Historyczne dane pomiarowe

Dodano dane terminowe – wersja testowa.

Dane z okresu 1951-2019

Wersja bazy: 1.34 [2019-03-16, lista zmian], aktualizacja planowana na 2019-04-15

Dane meteo z obszaru Polski uzyskane na podstawie danych udostępnionych przez Instytut Meteorologii i Gospodarki Wodnej – Państwowy Instytut Badawczy.

 

Wybierz Datę:    

       

TemperaturaWilgotnośćWiatrCiśnienieOpadyŚniegCzas trwania zjawisk
 Stacja t tx tn tng RH VA  wxwx mslp ppp RRR   cm mm wxwxwxwxwxwxwx
2019-07-25 22.1 29.1 13.2 11.6-- 2.0----- 0.0------------
2019-07-24 21.6 27.4 15.7 14.0-- 5.3----- 0.0------------
2019-07-23 19.3 25.1 13.9 13.8-- 7.3----- 0.0------------
2019-07-22 20.5 26.7 13.7 11.8-- 5.7----- 0.6------------
2019-07-21 21.1 29.4 14.9 13.8-- 5.7----- 3.4------------
2019-07-20 20.9 29.1 12.9 11.8-- 4.7----- 0.0------------
2019-07-19 18.8 27.9 10.1 8.0-- 5.3----- 1.2------------
2019-07-18 17.4 24.3 8.3 6.8-- 2.3----- 0.0------------
2019-07-17 17.1 22.8 10.7 9.8-- 4.0----- 0.0------------
2019-07-16 16.0 21.8 10.1 8.8-- 5.3----- 0.0------------
2019-07-15 16.3 23.4 9.1 7.9-- 3.0----- 0.0------------
2019-07-14 16.1 20.2 12.7 8.8-- 4.3----- 3.6------------
2019-07-13 16.5 24.3 7.8 8.3-- 7.0----- 7.8------------
2019-07-12 16.1 24.4 6.8 4.5-- 2.7----- 7.2------------
2019-07-11 15.5 22.3 9.5 6.9-- 5.0----- 1.1------------
2019-07-10 14.5 19.4 9.7 7.9-- 5.7----- 0.0------------
2019-07-09 14.3 20.0 6.9 4.5-- 5.0----- 0.0------------
2019-07-08 14.8 19.3 8.8 6.4-- 6.0----- 0.0------------
2019-07-07 16.5 20.3 11.8 10.5-- 5.3----- 0.0------------
2019-07-06 19.7 28.5 12.2 10.8-- 1.7----- 0.0------------
2019-07-05 16.9 22.2 10.4 8.3-- 7.7----- 0.0------------
2019-07-04 16.8 23.3 6.9 5.9-- 0.3----- 0.0------------
2019-07-03 17.3 23.2 10.2 8.4-- 2.3----- 0.0------------
2019-07-02 21.4 25.4 16.6 16.8-- 3.7----- 0.0------------
2019-07-01 25.9 34.5 19.0 15.8-- 3.3----- 0.3------------
2019-06-30 24.1 34.9 13.3 11.3-- 0.3----- 0.0------------
2019-06-29 19.9 26.0 12.8 12.3-- 2.0----- 0.0------------
2019-06-28 17.1 22.6 10.7 8.9-- 5.3----- 0.0------------
2019-06-27 24.5 28.2 21.8 19.3-- 0.7----- 0.0------------
2019-06-26 26.2 33.0 18.5 16.8-- 1.0----- 0.0------------
2019-06-25 23.8 31.2 14.4 13.3-- 0.3----- 0.0------------
2019-06-24 20.1 26.5 13.9 12.8-- 3.7----- 0.0------------
2019-06-23 19.8 25.4 15.2 14.6-- 4.0----- 0.0------------
2019-06-22 20.5 28.4 14.8 14.4-- 7.7----- 0.9------------
2019-06-21 21.3 28.1 15.4 13.7-- 3.3----- 39.1------------
2019-06-20 20.9 27.5 13.7 12.2-- 5.7----- 0.0------------
2019-06-19 21.5 27.9 14.8 12.6-- 3.7----- 0.0------------
2019-06-18 20.0 25.9 13.6 12.8-- 1.0----- 0.0------------
2019-06-17 19.9 24.8 15.2 14.8-- 2.3----- 0.0------------
2019-06-16 21.9 30.1 16.8 13.0-- 5.0----- 1.8------------
2019-06-15 24.5 32.9 14.7 13.8-- 1.7----- 0.0------------
2019-06-14 22.6 27.9 17.3 15.1-- 4.0----- 0.0------------
2019-06-13 25.6 32.7 17.3 16.1-- 2.7----- 0.8------------
2019-06-12 25.0 32.4 14.9 14.3-- 1.3----- 0.0------------
2019-06-11 24.1 34.4 16.0 14.8-- 1.7----- 2.6------------
2019-06-10 23.3 30.5 14.7 14.3-- 1.0----- 0.0------------
2019-06-09 20.3 26.1 12.5 12.3-- 1.3----- 0.0------------
2019-06-08 20.7 25.9 14.2 13.8-- 3.7----- 0.0------------
2019-06-07 19.9 25.3 13.2 13.2-- 4.0----- 0.0------------
2019-06-06 20.6 27.4 13.2 12.7-- 4.7----- 25.8------------
2019-06-05 21.1 27.1 13.6 12.4-- 3.0----- 0.0------------
2019-06-04 20.2 27.9 12.2 11.1-- 1.3----- 0.0------------
2019-06-03 19.6 26.9 11.7 10.3-- 0.7----- 0.0------------
2019-06-02 19.8 25.3 12.3 10.8-- 4.0----- 2.7------------
2019-06-01 17.0 23.9 10.2 8.8-- 4.3----- 0.0------------
2019-05-31 14.8 21.8 7.5 8.8-- 3.7----- 0.0------------
2019-05-30 10.4 13.1 8.3 9.3-- 8.0----- 4.0------------
2019-05-29 12.1 16.1 9.5 8.4-- 7.3----- 1.5------------
2019-05-28 16.7 20.7 11.9 9.3-- 7.3----- 13.1------------
2019-05-27 18.3 25.2 10.2 7.9-- 5.7----- 3.2------------
109.0 ms

 

Źródłem pochodzenia danych jest Instytut Meteorologii i Gospodarki Wodnej – Państwowy Instytut Badawczy. Dane Instytutu Meteorologii i Gospodarki Wodnej – Państwowego Instytutu Badawczego zostały przetworzone.

Dane źródłowe można odnaleźć na stronie https://dane.imgw.pl